sensor_id;sensor_type;location;lat;lon;timestamp;temperature;humidity
70366;DHT22;57787;48.216;12.396;2024-02-04T00:00:04;6.60;85.70
70366;DHT22;57787;48.216;12.396;2024-02-04T00:02:32;6.60;85.70
70366;DHT22;57787;48.216;12.396;2024-02-04T00:04:59;6.60;85.80
70366;DHT22;57787;48.216;12.396;2024-02-04T00:07:26;6.50;85.60
70366;DHT22;57787;48.216;12.396;2024-02-04T00:09:53;6.50;85.60
70366;DHT22;57787;48.216;12.396;2024-02-04T00:12:20;6.50;85.80
70366;DHT22;57787;48.216;12.396;2024-02-04T00:14:48;6.50;85.70
70366;DHT22;57787;48.216;12.396;2024-02-04T00:17:18;6.50;85.70
70366;DHT22;57787;48.216;12.396;2024-02-04T00:19:44;6.50;86.00
70366;DHT22;57787;48.216;12.396;2024-02-04T00:22:13;6.50;85.90
70366;DHT22;57787;48.216;12.396;2024-02-04T00:24:41;6.50;85.90
70366;DHT22;57787;48.216;12.396;2024-02-04T00:27:08;6.50;85.80
70366;DHT22;57787;48.216;12.396;2024-02-04T00:29:35;6.50;85.90
70366;DHT22;57787;48.216;12.396;2024-02-04T00:32:01;6.50;85.80
70366;DHT22;57787;48.216;12.396;2024-02-04T00:34:28;6.50;85.90
70366;DHT22;57787;48.216;12.396;2024-02-04T00:36:55;6.50;85.80
70366;DHT22;57787;48.216;12.396;2024-02-04T00:39:22;6.50;86.00
70366;DHT22;57787;48.216;12.396;2024-02-04T00:41:49;6.50;85.80
70366;DHT22;57787;48.216;12.396;2024-02-04T00:44:16;6.50;85.90
70366;DHT22;57787;48.216;12.396;2024-02-04T00:46:43;6.50;86.00
70366;DHT22;57787;48.216;12.396;2024-02-04T00:49:10;6.50;86.10
70366;DHT22;57787;48.216;12.396;2024-02-04T00:51:38;6.50;86.30
70366;DHT22;57787;48.216;12.396;2024-02-04T00:54:05;6.40;86.50
70366;DHT22;57787;48.216;12.396;2024-02-04T00:56:32;6.40;86.30
70366;DHT22;57787;48.216;12.396;2024-02-04T00:58:59;6.30;86.60
70366;DHT22;57787;48.216;12.396;2024-02-04T01:01:26;6.30;86.50
70366;DHT22;57787;48.216;12.396;2024-02-04T01:03:53;6.30;86.50
70366;DHT22;57787;48.216;12.396;2024-02-04T01:06:22;6.20;86.80
70366;DHT22;57787;48.216;12.396;2024-02-04T01:08:49;6.20;87.10
70366;DHT22;57787;48.216;12.396;2024-02-04T01:11:16;6.20;87.10
70366;DHT22;57787;48.216;12.396;2024-02-04T01:13:43;6.10;87.00
70366;DHT22;57787;48.216;12.396;2024-02-04T01:16:10;6.10;87.00
70366;DHT22;57787;48.216;12.396;2024-02-04T01:18:37;6.10;87.00
70366;DHT22;57787;48.216;12.396;2024-02-04T01:21:04;6.10;86.90
70366;DHT22;57787;48.216;12.396;2024-02-04T01:23:31;6.10;86.90
70366;DHT22;57787;48.216;12.396;2024-02-04T01:25:59;6.00;86.80
70366;DHT22;57787;48.216;12.396;2024-02-04T01:28:28;6.10;86.90
70366;DHT22;57787;48.216;12.396;2024-02-04T01:30:55;6.10;87.00
70366;DHT22;57787;48.216;12.396;2024-02-04T01:33:22;6.10;87.00
70366;DHT22;57787;48.216;12.396;2024-02-04T01:35:48;6.10;87.00
70366;DHT22;57787;48.216;12.396;2024-02-04T01:38:15;6.10;87.10
70366;DHT22;57787;48.216;12.396;2024-02-04T01:40:42;6.20;87.00
70366;DHT22;57787;48.216;12.396;2024-02-04T01:43:09;6.20;86.70
70366;DHT22;57787;48.216;12.396;2024-02-04T01:45:38;6.20;86.60
70366;DHT22;57787;48.216;12.396;2024-02-04T01:48:05;6.20;86.60
70366;DHT22;57787;48.216;12.396;2024-02-04T01:50:32;6.10;86.30
70366;DHT22;57787;48.216;12.396;2024-02-04T01:52:59;6.10;86.30
70366;DHT22;57787;48.216;12.396;2024-02-04T01:55:26;6.10;86.50
70366;DHT22;57787;48.216;12.396;2024-02-04T01:57:53;6.10;86.40
70366;DHT22;57787;48.216;12.396;2024-02-04T02:00:20;6.10;86.40
70366;DHT22;57787;48.216;12.396;2024-02-04T02:02:47;6.10;86.50
70366;DHT22;57787;48.216;12.396;2024-02-04T02:05:15;6.00;86.40
70366;DHT22;57787;48.216;12.396;2024-02-04T02:07:42;6.00;86.70
70366;DHT22;57787;48.216;12.396;2024-02-04T02:10:11;6.00;86.70
70366;DHT22;57787;48.216;12.396;2024-02-04T02:12:49;6.00;86.50
70366;DHT22;57787;48.216;12.396;2024-02-04T02:15:25;6.00;86.60
70366;DHT22;57787;48.216;12.396;2024-02-04T02:18:27;6.00;86.50
70366;DHT22;57787;48.216;12.396;2024-02-04T02:23:29;6.10;86.80
70366;DHT22;57787;48.216;12.396;2024-02-04T02:25:58;6.20;86.60
70366;DHT22;57787;48.216;12.396;2024-02-04T02:28:27;6.30;86.40
70366;DHT22;57787;48.216;12.396;2024-02-04T02:30:54;6.30;86.20
70366;DHT22;57787;48.216;12.396;2024-02-04T02:33:20;6.30;86.20
70366;DHT22;57787;48.216;12.396;2024-02-04T02:35:49;6.30;86.20
70366;DHT22;57787;48.216;12.396;2024-02-04T02:41:08;6.30;85.80
70366;DHT22;57787;48.216;12.396;2024-02-04T02:43:36;6.40;85.70
70366;DHT22;57787;48.216;12.396;2024-02-04T02:46:07;6.40;85.40
70366;DHT22;57787;48.216;12.396;2024-02-04T02:48:34;6.50;85.50
70366;DHT22;57787;48.216;12.396;2024-02-04T02:51:02;6.50;85.30
70366;DHT22;57787;48.216;12.396;2024-02-04T02:53:29;6.50;85.30
70366;DHT22;57787;48.216;12.396;2024-02-04T02:55:55;6.50;85.20
70366;DHT22;57787;48.216;12.396;2024-02-04T02:58:22;6.50;85.10
70366;DHT22;57787;48.216;12.396;2024-02-04T03:00:50;6.50;85.00
70366;DHT22;57787;48.216;12.396;2024-02-04T03:03:17;6.50;85.10
70366;DHT22;57787;48.216;12.396;2024-02-04T03:05:44;6.50;85.10
70366;DHT22;57787;48.216;12.396;2024-02-04T03:08:11;6.50;85.00
70366;DHT22;57787;48.216;12.396;2024-02-04T03:10:40;6.50;85.10
70366;DHT22;57787;48.216;12.396;2024-02-04T03:13:07;6.40;85.20
70366;DHT22;57787;48.216;12.396;2024-02-04T03:15:34;6.40;85.20
70366;DHT22;57787;48.216;12.396;2024-02-04T03:18:01;6.40;85.10
70366;DHT22;57787;48.216;12.396;2024-02-04T03:20:29;6.40;85.30
70366;DHT22;57787;48.216;12.396;2024-02-04T03:22:56;6.40;85.10
70366;DHT22;57787;48.216;12.396;2024-02-04T03:25:23;6.40;85.20
70366;DHT22;57787;48.216;12.396;2024-02-04T03:27:52;6.40;85.10
70366;DHT22;57787;48.216;12.396;2024-02-04T03:30:19;6.40;85.10
70366;DHT22;57787;48.216;12.396;2024-02-04T03:32:46;6.40;85.20
70366;DHT22;57787;48.216;12.396;2024-02-04T03:35:13;6.40;85.30
70366;DHT22;57787;48.216;12.396;2024-02-04T03:37:41;6.40;85.10
70366;DHT22;57787;48.216;12.396;2024-02-04T03:40:07;6.40;85.40
70366;DHT22;57787;48.216;12.396;2024-02-04T03:42:34;6.40;85.40
70366;DHT22;57787;48.216;12.396;2024-02-04T03:45:03;6.40;85.60
70366;DHT22;57787;48.216;12.396;2024-02-04T03:47:30;6.40;85.80
70366;DHT22;57787;48.216;12.396;2024-02-04T03:49:57;6.40;85.60
70366;DHT22;57787;48.216;12.396;2024-02-04T03:52:26;6.40;85.80
70366;DHT22;57787;48.216;12.396;2024-02-04T03:54:53;6.40;85.70
70366;DHT22;57787;48.216;12.396;2024-02-04T03:57:20;6.40;85.70
70366;DHT22;57787;48.216;12.396;2024-02-04T03:59:48;6.40;85.90
70366;DHT22;57787;48.216;12.396;2024-02-04T04:02:15;6.30;86.00
70366;DHT22;57787;48.216;12.396;2024-02-04T04:04:42;6.40;86.20
70366;DHT22;57787;48.216;12.396;2024-02-04T04:07:14;6.30;86.50
70366;DHT22;57787;48.216;12.396;2024-02-04T04:09:41;6.30;86.90
70366;DHT22;57787;48.216;12.396;2024-02-04T04:12:08;6.30;86.90
70366;DHT22;57787;48.216;12.396;2024-02-04T04:14:35;6.30;87.60
70366;DHT22;57787;48.216;12.396;2024-02-04T04:17:02;6.30;87.70
70366;DHT22;57787;48.216;12.396;2024-02-04T04:19:29;6.30;87.90
70366;DHT22;57787;48.216;12.396;2024-02-04T04:21:56;6.30;87.90
70366;DHT22;57787;48.216;12.396;2024-02-04T04:24:25;6.30;87.90
70366;DHT22;57787;48.216;12.396;2024-02-04T04:26:52;6.30;88.40
70366;DHT22;57787;48.216;12.396;2024-02-04T04:29:19;6.20;88.50
70366;DHT22;57787;48.216;12.396;2024-02-04T04:31:46;6.20;88.60
70366;DHT22;57787;48.216;12.396;2024-02-04T04:34:13;6.20;88.70
70366;DHT22;57787;48.216;12.396;2024-02-04T04:36:41;6.20;88.80
70366;DHT22;57787;48.216;12.396;2024-02-04T04:39:07;6.20;88.90
70366;DHT22;57787;48.216;12.396;2024-02-04T04:41:34;6.20;89.10
70366;DHT22;57787;48.216;12.396;2024-02-04T04:44:02;6.10;89.20
70366;DHT22;57787;48.216;12.396;2024-02-04T04:46:29;6.20;89.20
70366;DHT22;57787;48.216;12.396;2024-02-04T04:48:56;6.20;89.50
70366;DHT22;57787;48.216;12.396;2024-02-04T04:51:25;6.20;89.40
70366;DHT22;57787;48.216;12.396;2024-02-04T04:53:52;6.20;89.30
70366;DHT22;57787;48.216;12.396;2024-02-04T04:56:21;6.20;89.50
70366;DHT22;57787;48.216;12.396;2024-02-04T04:58:47;6.10;89.60
70366;DHT22;57787;48.216;12.396;2024-02-04T05:01:15;6.10;89.70
70366;DHT22;57787;48.216;12.396;2024-02-04T05:03:41;6.10;89.70
70366;DHT22;57787;48.216;12.396;2024-02-04T05:06:08;6.10;89.90
70366;DHT22;57787;48.216;12.396;2024-02-04T05:08:35;6.10;89.80
70366;DHT22;57787;48.216;12.396;2024-02-04T05:11:02;6.10;89.90
70366;DHT22;57787;48.216;12.396;2024-02-04T05:13:29;6.10;90.00
70366;DHT22;57787;48.216;12.396;2024-02-04T05:15:57;6.10;89.90
70366;DHT22;57787;48.216;12.396;2024-02-04T05:18:23;6.10;89.90
70366;DHT22;57787;48.216;12.396;2024-02-04T05:20:53;6.10;89.80
70366;DHT22;57787;48.216;12.396;2024-02-04T05:23:20;6.10;89.90
70366;DHT22;57787;48.216;12.396;2024-02-04T05:25:50;6.10;90.00
70366;DHT22;57787;48.216;12.396;2024-02-04T05:28:17;6.10;90.10
70366;DHT22;57787;48.216;12.396;2024-02-04T05:30:44;6.10;90.10
70366;DHT22;57787;48.216;12.396;2024-02-04T05:33:13;6.10;90.10
70366;DHT22;57787;48.216;12.396;2024-02-04T05:35:41;6.10;90.20
70366;DHT22;57787;48.216;12.396;2024-02-04T05:38:09;6.10;90.30
70366;DHT22;57787;48.216;12.396;2024-02-04T05:40:36;6.10;90.30
70366;DHT22;57787;48.216;12.396;2024-02-04T05:43:03;6.10;90.20
70366;DHT22;57787;48.216;12.396;2024-02-04T05:45:39;6.10;90.30
70366;DHT22;57787;48.216;12.396;2024-02-04T05:48:09;6.10;90.30
70366;DHT22;57787;48.216;12.396;2024-02-04T05:50:37;6.10;90.50
70366;DHT22;57787;48.216;12.396;2024-02-04T05:53:04;6.20;90.40
70366;DHT22;57787;48.216;12.396;2024-02-04T05:55:31;6.10;90.40
70366;DHT22;57787;48.216;12.396;2024-02-04T05:57:58;6.20;90.40
70366;DHT22;57787;48.216;12.396;2024-02-04T06:00:25;6.20;90.50
70366;DHT22;57787;48.216;12.396;2024-02-04T06:02:53;6.20;90.40
70366;DHT22;57787;48.216;12.396;2024-02-04T06:05:20;6.20;90.40
70366;DHT22;57787;48.216;12.396;2024-02-04T06:07:47;6.20;90.40
70366;DHT22;57787;48.216;12.396;2024-02-04T06:10:14;6.20;90.40
70366;DHT22;57787;48.216;12.396;2024-02-04T06:12:40;6.10;90.40
70366;DHT22;57787;48.216;12.396;2024-02-04T06:15:12;6.20;90.50
70366;DHT22;57787;48.216;12.396;2024-02-04T06:17:39;6.10;90.40
70366;DHT22;57787;48.216;12.396;2024-02-04T06:20:06;6.10;90.50
70366;DHT22;57787;48.216;12.396;2024-02-04T06:22:35;6.10;90.50
70366;DHT22;57787;48.216;12.396;2024-02-04T06:25:03;6.10;90.50
70366;DHT22;57787;48.216;12.396;2024-02-04T06:27:30;6.10;90.50
70366;DHT22;57787;48.216;12.396;2024-02-04T06:29:57;6.10;90.50
70366;DHT22;57787;48.216;12.396;2024-02-04T06:32:24;6.10;90.50
70366;DHT22;57787;48.216;12.396;2024-02-04T06:34:51;6.10;90.60
70366;DHT22;57787;48.216;12.396;2024-02-04T06:37:20;6.10;90.60
70366;DHT22;57787;48.216;12.396;2024-02-04T06:39:47;6.10;90.70
70366;DHT22;57787;48.216;12.396;2024-02-04T06:42:14;6.20;90.80
70366;DHT22;57787;48.216;12.396;2024-02-04T06:44:44;6.20;90.70
70366;DHT22;57787;48.216;12.396;2024-02-04T06:47:11;6.10;90.70
70366;DHT22;57787;48.216;12.396;2024-02-04T06:49:43;6.20;90.80
70366;DHT22;57787;48.216;12.396;2024-02-04T06:52:13;6.30;90.80
70366;DHT22;57787;48.216;12.396;2024-02-04T06:54:41;6.20;90.70
70366;DHT22;57787;48.216;12.396;2024-02-04T06:57:07;6.30;90.60
70366;DHT22;57787;48.216;12.396;2024-02-04T06:59:35;6.30;90.60
70366;DHT22;57787;48.216;12.396;2024-02-04T07:02:02;6.30;90.50
70366;DHT22;57787;48.216;12.396;2024-02-04T07:04:29;6.30;90.40
70366;DHT22;57787;48.216;12.396;2024-02-04T07:06:56;6.30;90.30
70366;DHT22;57787;48.216;12.396;2024-02-04T07:09:22;6.30;90.40
70366;DHT22;57787;48.216;12.396;2024-02-04T07:11:49;6.40;90.40
70366;DHT22;57787;48.216;12.396;2024-02-04T07:14:16;6.50;90.30
70366;DHT22;57787;48.216;12.396;2024-02-04T07:16:43;6.50;90.20
70366;DHT22;57787;48.216;12.396;2024-02-04T07:19:12;6.60;90.20
70366;DHT22;57787;48.216;12.396;2024-02-04T07:21:39;6.60;89.90
70366;DHT22;57787;48.216;12.396;2024-02-04T07:24:06;6.70;89.90
70366;DHT22;57787;48.216;12.396;2024-02-04T07:26:33;6.80;89.70
70366;DHT22;57787;48.216;12.396;2024-02-04T07:29:00;6.80;89.50
70366;DHT22;57787;48.216;12.396;2024-02-04T07:31:27;6.90;89.50
70366;DHT22;57787;48.216;12.396;2024-02-04T07:33:54;6.90;89.40
70366;DHT22;57787;48.216;12.396;2024-02-04T07:36:20;7.00;89.30
70366;DHT22;57787;48.216;12.396;2024-02-04T07:38:47;7.00;89.20
70366;DHT22;57787;48.216;12.396;2024-02-04T07:41:15;7.00;89.10
70366;DHT22;57787;48.216;12.396;2024-02-04T07:43:42;7.10;89.10
70366;DHT22;57787;48.216;12.396;2024-02-04T07:46:10;7.10;89.00
70366;DHT22;57787;48.216;12.396;2024-02-04T07:48:38;7.20;88.90
70366;DHT22;57787;48.216;12.396;2024-02-04T07:51:06;7.20;88.80
70366;DHT22;57787;48.216;12.396;2024-02-04T07:53:33;7.30;88.70
70366;DHT22;57787;48.216;12.396;2024-02-04T07:56:01;7.30;88.50
70366;DHT22;57787;48.216;12.396;2024-02-04T07:58:30;7.40;88.50
70366;DHT22;57787;48.216;12.396;2024-02-04T08:00:56;7.40;88.30
70366;DHT22;57787;48.216;12.396;2024-02-04T08:03:23;7.50;88.10
70366;DHT22;57787;48.216;12.396;2024-02-04T08:05:50;7.50;87.90
70366;DHT22;57787;48.216;12.396;2024-02-04T08:08:17;7.50;87.80
70366;DHT22;57787;48.216;12.396;2024-02-04T08:10:44;7.60;87.90
70366;DHT22;57787;48.216;12.396;2024-02-04T08:13:11;7.60;87.70
70366;DHT22;57787;48.216;12.396;2024-02-04T08:15:38;7.60;87.70
70366;DHT22;57787;48.216;12.396;2024-02-04T08:18:05;7.60;87.60
70366;DHT22;57787;48.216;12.396;2024-02-04T08:20:34;7.60;87.10
70366;DHT22;57787;48.216;12.396;2024-02-04T08:23:00;7.70;87.20
70366;DHT22;57787;48.216;12.396;2024-02-04T08:25:27;7.70;87.20
70366;DHT22;57787;48.216;12.396;2024-02-04T08:27:54;7.70;87.10
70366;DHT22;57787;48.216;12.396;2024-02-04T08:30:24;7.80;87.10
70366;DHT22;57787;48.216;12.396;2024-02-04T08:32:51;7.90;87.00
70366;DHT22;57787;48.216;12.396;2024-02-04T08:35:18;8.00;87.00
70366;DHT22;57787;48.216;12.396;2024-02-04T08:37:45;8.10;86.90
70366;DHT22;57787;48.216;12.396;2024-02-04T08:40:12;8.20;86.00
70366;DHT22;57787;48.216;12.396;2024-02-04T08:42:39;8.30;85.60
70366;DHT22;57787;48.216;12.396;2024-02-04T08:45:06;8.30;85.10
70366;DHT22;57787;48.216;12.396;2024-02-04T08:47:33;8.40;85.20
70366;DHT22;57787;48.216;12.396;2024-02-04T08:50:00;8.60;85.50
70366;DHT22;57787;48.216;12.396;2024-02-04T08:52:27;8.60;85.20
70366;DHT22;57787;48.216;12.396;2024-02-04T08:54:55;8.70;84.20
70366;DHT22;57787;48.216;12.396;2024-02-04T08:57:21;8.80;83.70
70366;DHT22;57787;48.216;12.396;2024-02-04T08:59:48;8.90;83.30
70366;DHT22;57787;48.216;12.396;2024-02-04T09:02:15;8.90;83.30
70366;DHT22;57787;48.216;12.396;2024-02-04T09:04:41;8.80;83.20
70366;DHT22;57787;48.216;12.396;2024-02-04T09:07:08;8.80;83.50
70366;DHT22;57787;48.216;12.396;2024-02-04T09:09:35;8.70;83.70
70366;DHT22;57787;48.216;12.396;2024-02-04T09:12:02;8.70;83.40
70366;DHT22;57787;48.216;12.396;2024-02-04T09:14:29;8.70;84.20
70366;DHT22;57787;48.216;12.396;2024-02-04T09:16:56;8.70;84.30
70366;DHT22;57787;48.216;12.396;2024-02-04T09:19:23;8.80;84.20
70366;DHT22;57787;48.216;12.396;2024-02-04T09:21:51;8.80;84.10
70366;DHT22;57787;48.216;12.396;2024-02-04T09:24:18;9.00;84.10
70366;DHT22;57787;48.216;12.396;2024-02-04T09:26:45;9.10;83.50
70366;DHT22;57787;48.216;12.396;2024-02-04T09:29:11;9.20;83.10
70366;DHT22;57787;48.216;12.396;2024-02-04T09:31:38;9.20;83.10
70366;DHT22;57787;48.216;12.396;2024-02-04T09:34:05;9.30;83.40
70366;DHT22;57787;48.216;12.396;2024-02-04T09:36:33;9.30;82.80
70366;DHT22;57787;48.216;12.396;2024-02-04T09:39:00;9.30;82.40
70366;DHT22;57787;48.216;12.396;2024-02-04T09:41:28;9.40;82.30
70366;DHT22;57787;48.216;12.396;2024-02-04T09:43:55;9.40;82.40
70366;DHT22;57787;48.216;12.396;2024-02-04T09:46:23;9.50;82.70
70366;DHT22;57787;48.216;12.396;2024-02-04T09:48:50;9.60;82.50
70366;DHT22;57787;48.216;12.396;2024-02-04T09:51:18;9.60;82.30
70366;DHT22;57787;48.216;12.396;2024-02-04T09:53:44;9.70;81.90
70366;DHT22;57787;48.216;12.396;2024-02-04T09:56:12;9.80;82.50
70366;DHT22;57787;48.216;12.396;2024-02-04T09:58:40;9.80;82.20
70366;DHT22;57787;48.216;12.396;2024-02-04T10:01:07;9.80;80.80
70366;DHT22;57787;48.216;12.396;2024-02-04T10:03:39;9.80;81.60
70366;DHT22;57787;48.216;12.396;2024-02-04T10:06:07;9.80;81.10
70366;DHT22;57787;48.216;12.396;2024-02-04T10:08:36;10.00;81.20
70366;DHT22;57787;48.216;12.396;2024-02-04T10:11:04;10.00;81.40
70366;DHT22;57787;48.216;12.396;2024-02-04T10:13:41;9.90;79.40
70366;DHT22;57787;48.216;12.396;2024-02-04T10:16:08;9.90;80.80
70366;DHT22;57787;48.216;12.396;2024-02-04T10:18:35;10.00;80.70
70366;DHT22;57787;48.216;12.396;2024-02-04T10:21:02;10.00;81.70
70366;DHT22;57787;48.216;12.396;2024-02-04T10:23:30;10.20;81.90
70366;DHT22;57787;48.216;12.396;2024-02-04T10:25:58;10.30;80.30
70366;DHT22;57787;48.216;12.396;2024-02-04T10:28:25;10.30;79.30
70366;DHT22;57787;48.216;12.396;2024-02-04T10:30:52;10.30;80.20
70366;DHT22;57787;48.216;12.396;2024-02-04T10:33:20;10.30;80.10
70366;DHT22;57787;48.216;12.396;2024-02-04T10:35:47;10.40;80.00
70366;DHT22;57787;48.216;12.396;2024-02-04T10:38:14;10.40;79.40
70366;DHT22;57787;48.216;12.396;2024-02-04T10:40:40;10.50;79.50
70366;DHT22;57787;48.216;12.396;2024-02-04T10:43:07;10.50;79.40
70366;DHT22;57787;48.216;12.396;2024-02-04T10:45:35;10.50;80.20
70366;DHT22;57787;48.216;12.396;2024-02-04T10:48:03;10.50;79.80
70366;DHT22;57787;48.216;12.396;2024-02-04T10:50:33;10.40;80.20
70366;DHT22;57787;48.216;12.396;2024-02-04T10:53:03;10.40;80.30
70366;DHT22;57787;48.216;12.396;2024-02-04T10:55:30;10.30;79.90
70366;DHT22;57787;48.216;12.396;2024-02-04T10:57:57;10.50;80.00
70366;DHT22;57787;48.216;12.396;2024-02-04T11:00:25;10.60;80.30
70366;DHT22;57787;48.216;12.396;2024-02-04T11:02:52;10.80;79.70
70366;DHT22;57787;48.216;12.396;2024-02-04T11:05:20;10.90;79.50
70366;DHT22;57787;48.216;12.396;2024-02-04T11:07:48;11.00;79.30
70366;DHT22;57787;48.216;12.396;2024-02-04T11:10:15;11.20;77.70
70366;DHT22;57787;48.216;12.396;2024-02-04T11:12:43;11.30;77.90
70366;DHT22;57787;48.216;12.396;2024-02-04T11:15:11;11.50;76.80
70366;DHT22;57787;48.216;12.396;2024-02-04T11:20:24;11.90;74.70
70366;DHT22;57787;48.216;12.396;2024-02-04T11:23:40;12.00;74.90
70366;DHT22;57787;48.216;12.396;2024-02-04T11:25:52;12.10;74.30
70366;DHT22;57787;48.216;12.396;2024-02-04T11:28:23;12.10;74.50
70366;DHT22;57787;48.216;12.396;2024-02-04T11:30:52;12.10;73.90
70366;DHT22;57787;48.216;12.396;2024-02-04T11:33:20;12.20;74.30
70366;DHT22;57787;48.216;12.396;2024-02-04T11:35:58;12.10;73.90
70366;DHT22;57787;48.216;12.396;2024-02-04T11:38:31;12.10;74.50
70366;DHT22;57787;48.216;12.396;2024-02-04T11:40:59;12.10;74.60
70366;DHT22;57787;48.216;12.396;2024-02-04T11:43:26;12.10;74.70
70366;DHT22;57787;48.216;12.396;2024-02-04T11:45:52;12.30;74.00
70366;DHT22;57787;48.216;12.396;2024-02-04T11:48:28;12.10;70.60
70366;DHT22;57787;48.216;12.396;2024-02-04T11:50:58;12.00;73.70
70366;DHT22;57787;48.216;12.396;2024-02-04T11:53:27;11.90;72.80
70366;DHT22;57787;48.216;12.396;2024-02-04T11:55:59;11.90;74.00
70366;DHT22;57787;48.216;12.396;2024-02-04T11:58:27;11.90;73.40
70366;DHT22;57787;48.216;12.396;2024-02-04T12:00:54;11.90;73.80
70366;DHT22;57787;48.216;12.396;2024-02-04T12:03:31;12.00;74.30
70366;DHT22;57787;48.216;12.396;2024-02-04T12:05:57;12.10;73.90
70366;DHT22;57787;48.216;12.396;2024-02-04T12:08:26;12.20;73.50
70366;DHT22;57787;48.216;12.396;2024-02-04T12:10:54;12.20;73.40
70366;DHT22;57787;48.216;12.396;2024-02-04T12:13:21;12.30;73.60
70366;DHT22;57787;48.216;12.396;2024-02-04T12:15:48;12.30;72.90
70366;DHT22;57787;48.216;12.396;2024-02-04T12:18:17;12.30;73.40
70366;DHT22;57787;48.216;12.396;2024-02-04T12:20:47;12.30;72.60
70366;DHT22;57787;48.216;12.396;2024-02-04T12:23:17;12.30;72.00
70366;DHT22;57787;48.216;12.396;2024-02-04T12:25:50;12.30;72.40
70366;DHT22;57787;48.216;12.396;2024-02-04T12:28:17;12.30;72.10
70366;DHT22;57787;48.216;12.396;2024-02-04T12:30:52;12.20;73.10
70366;DHT22;57787;48.216;12.396;2024-02-04T12:33:19;12.20;72.80
70366;DHT22;57787;48.216;12.396;2024-02-04T12:35:52;12.20;73.00
70366;DHT22;57787;48.216;12.396;2024-02-04T12:38:19;12.30;72.00
70366;DHT22;57787;48.216;12.396;2024-02-04T12:40:46;12.30;73.00
70366;DHT22;57787;48.216;12.396;2024-02-04T12:43:12;12.30;72.80
70366;DHT22;57787;48.216;12.396;2024-02-04T12:45:39;12.40;72.90
70366;DHT22;57787;48.216;12.396;2024-02-04T12:48:06;12.30;72.90
70366;DHT22;57787;48.216;12.396;2024-02-04T12:50:36;12.30;71.80
70366;DHT22;57787;48.216;12.396;2024-02-04T12:53:04;12.40;72.80
70366;DHT22;57787;48.216;12.396;2024-02-04T12:55:35;12.60;72.50
70366;DHT22;57787;48.216;12.396;2024-02-04T12:58:05;12.50;72.30
70366;DHT22;57787;48.216;12.396;2024-02-04T13:00:33;12.60;72.20
70366;DHT22;57787;48.216;12.396;2024-02-04T13:03:00;12.60;71.90
70366;DHT22;57787;48.216;12.396;2024-02-04T13:05:29;12.60;72.00
70366;DHT22;57787;48.216;12.396;2024-02-04T13:07:58;12.70;71.10
70366;DHT22;57787;48.216;12.396;2024-02-04T13:10:25;12.70;72.30
70366;DHT22;57787;48.216;12.396;2024-02-04T13:13:06;12.60;71.40
70366;DHT22;57787;48.216;12.396;2024-02-04T13:15:40;12.60;72.10
70366;DHT22;57787;48.216;12.396;2024-02-04T13:18:08;12.70;71.20
70366;DHT22;57787;48.216;12.396;2024-02-04T13:20:37;12.80;71.50
70366;DHT22;57787;48.216;12.396;2024-02-04T13:23:05;12.70;71.30
70366;DHT22;57787;48.216;12.396;2024-02-04T13:25:32;12.80;72.20
70366;DHT22;57787;48.216;12.396;2024-02-04T13:28:02;12.80;70.10
70366;DHT22;57787;48.216;12.396;2024-02-04T13:30:30;12.80;70.40
70366;DHT22;57787;48.216;12.396;2024-02-04T13:32:57;12.80;70.80
70366;DHT22;57787;48.216;12.396;2024-02-04T13:35:24;12.70;70.80
70366;DHT22;57787;48.216;12.396;2024-02-04T13:37:52;12.60;71.90
70366;DHT22;57787;48.216;12.396;2024-02-04T13:40:19;12.40;71.20
70366;DHT22;57787;48.216;12.396;2024-02-04T13:42:46;12.20;70.80
70366;DHT22;57787;48.216;12.396;2024-02-04T13:45:13;12.10;71.50
70366;DHT22;57787;48.216;12.396;2024-02-04T13:47:41;12.00;72.20
70366;DHT22;57787;48.216;12.396;2024-02-04T13:50:09;12.00;72.60
70366;DHT22;57787;48.216;12.396;2024-02-04T13:52:36;11.90;72.70
70366;DHT22;57787;48.216;12.396;2024-02-04T13:55:04;11.80;72.40
70366;DHT22;57787;48.216;12.396;2024-02-04T13:57:34;11.80;73.20
70366;DHT22;57787;48.216;12.396;2024-02-04T14:00:02;11.70;73.50
70366;DHT22;57787;48.216;12.396;2024-02-04T14:02:31;11.70;73.70
70366;DHT22;57787;48.216;12.396;2024-02-04T14:04:58;11.70;74.40
70366;DHT22;57787;48.216;12.396;2024-02-04T14:07:25;11.80;74.30
70366;DHT22;57787;48.216;12.396;2024-02-04T14:09:52;11.90;73.70
70366;DHT22;57787;48.216;12.396;2024-02-04T14:12:19;11.90;73.40
70366;DHT22;57787;48.216;12.396;2024-02-04T14:14:45;11.80;74.00
70366;DHT22;57787;48.216;12.396;2024-02-04T14:17:12;11.70;74.50
70366;DHT22;57787;48.216;12.396;2024-02-04T14:19:39;11.60;72.70
70366;DHT22;57787;48.216;12.396;2024-02-04T14:22:06;11.60;74.00
70366;DHT22;57787;48.216;12.396;2024-02-04T14:24:33;11.50;73.80
70366;DHT22;57787;48.216;12.396;2024-02-04T14:27:00;11.60;74.60
70366;DHT22;57787;48.216;12.396;2024-02-04T14:29:29;11.60;73.90
70366;DHT22;57787;48.216;12.396;2024-02-04T14:31:56;11.60;74.20
70366;DHT22;57787;48.216;12.396;2024-02-04T14:34:24;11.60;74.30
70366;DHT22;57787;48.216;12.396;2024-02-04T14:36:52;11.50;75.20
70366;DHT22;57787;48.216;12.396;2024-02-04T14:39:19;11.40;74.30
70366;DHT22;57787;48.216;12.396;2024-02-04T14:41:46;11.40;73.80
70366;DHT22;57787;48.216;12.396;2024-02-04T14:44:13;11.40;74.00
70366;DHT22;57787;48.216;12.396;2024-02-04T14:46:39;11.40;74.20
70366;DHT22;57787;48.216;12.396;2024-02-04T14:49:08;11.40;75.20
70366;DHT22;57787;48.216;12.396;2024-02-04T14:51:40;11.30;75.00
70366;DHT22;57787;48.216;12.396;2024-02-04T14:54:07;11.30;74.50
70366;DHT22;57787;48.216;12.396;2024-02-04T14:56:40;11.30;74.80
70366;DHT22;57787;48.216;12.396;2024-02-04T14:59:10;11.20;74.20
70366;DHT22;57787;48.216;12.396;2024-02-04T15:01:48;11.20;75.00
70366;DHT22;57787;48.216;12.396;2024-02-04T15:04:17;11.10;75.00
70366;DHT22;57787;48.216;12.396;2024-02-04T15:06:45;11.00;75.30
70366;DHT22;57787;48.216;12.396;2024-02-04T15:09:12;10.90;75.10
70366;DHT22;57787;48.216;12.396;2024-02-04T15:11:41;10.80;75.50
70366;DHT22;57787;48.216;12.396;2024-02-04T15:14:08;10.70;76.20
70366;DHT22;57787;48.216;12.396;2024-02-04T15:16:35;10.70;76.20
70366;DHT22;57787;48.216;12.396;2024-02-04T15:19:06;10.60;76.50
70366;DHT22;57787;48.216;12.396;2024-02-04T15:21:33;10.50;76.00
70366;DHT22;57787;48.216;12.396;2024-02-04T15:24:00;10.50;76.50
70366;DHT22;57787;48.216;12.396;2024-02-04T15:26:34;10.40;76.80
70366;DHT22;57787;48.216;12.396;2024-02-04T15:29:03;10.30;77.40
70366;DHT22;57787;48.216;12.396;2024-02-04T15:31:30;10.30;77.30
70366;DHT22;57787;48.216;12.396;2024-02-04T15:34:00;10.20;77.60
70366;DHT22;57787;48.216;12.396;2024-02-04T15:36:30;10.20;77.30